createdAt,value
2018-12-24T00:02:14.190Z,1.10
2018-12-24T00:04:41.606Z,0.90
2018-12-24T00:07:09.341Z,1.62
2018-12-24T00:09:36.672Z,1.80
2018-12-24T00:12:07.132Z,6.70
2018-12-24T00:14:34.178Z,7.33
2018-12-24T00:17:01.965Z,13.05
2018-12-24T00:19:29.250Z,9.38
2018-12-24T00:21:56.561Z,4.28
2018-12-24T00:24:23.979Z,3.20
2018-12-24T00:26:51.676Z,2.90
2018-12-24T00:29:19.287Z,2.40
2018-12-24T00:31:46.701Z,1.05
2018-12-24T00:34:14.074Z,1.22
2018-12-24T00:36:41.380Z,1.12
2018-12-24T00:39:08.797Z,2.75
2018-12-24T00:41:36.115Z,1.62
2018-12-24T00:44:03.498Z,1.62
2018-12-24T00:46:30.831Z,2.05
2018-12-24T00:48:58.198Z,3.15
2018-12-24T00:51:25.485Z,4.55
2018-12-24T00:53:53.285Z,5.85
2018-12-24T00:56:20.600Z,2.55
2018-12-24T00:58:48.003Z,3.85
2018-12-24T01:01:15.425Z,2.30
2018-12-24T01:03:42.792Z,2.70
2018-12-24T01:06:10.093Z,2.77
2018-12-24T01:08:37.410Z,7.80
2018-12-24T01:11:04.707Z,15.78
2018-12-24T01:13:32.060Z,16.32
2018-12-24T01:15:59.678Z,13.60
2018-12-24T01:18:27.086Z,28.75
2018-12-24T01:20:54.477Z,20.62
2018-12-24T01:23:21.947Z,7.50
2018-12-24T01:25:49.313Z,9.00
2018-12-24T01:28:17.354Z,14.15
2018-12-24T01:30:44.636Z,11.20
2018-12-24T01:33:14.431Z,6.97
2018-12-24T01:35:41.820Z,8.88
2018-12-24T01:38:09.478Z,6.05
2018-12-24T01:40:36.890Z,3.08
2018-12-24T01:43:04.292Z,1.82
2018-12-24T01:45:31.599Z,2.12
2018-12-24T01:47:59.007Z,1.98
2018-12-24T01:50:26.311Z,1.30
2018-12-24T01:52:53.639Z,1.00
2018-12-24T01:55:21.054Z,0.60
2018-12-24T01:57:48.347Z,0.50
2018-12-24T02:00:15.762Z,0.78
2018-12-24T02:02:43.064Z,0.55
2018-12-24T02:05:10.474Z,0.57
2018-12-24T02:07:37.921Z,0.70
2018-12-24T02:10:05.292Z,0.65
2018-12-24T02:12:32.916Z,0.50
2018-12-24T02:15:00.346Z,0.40
2018-12-24T02:17:27.646Z,0.50
2018-12-24T02:19:54.982Z,0.98
2018-12-24T02:22:22.378Z,0.75
2018-12-24T02:24:49.788Z,0.90
2018-12-24T02:27:17.073Z,0.40
2018-12-24T02:29:44.406Z,0.50
2018-12-24T02:32:12.092Z,0.50
2018-12-24T02:34:39.510Z,0.65
2018-12-24T02:37:06.921Z,1.15
2018-12-24T02:39:35.150Z,0.68
2018-12-24T02:42:02.538Z,0.88
2018-12-24T02:44:30.158Z,0.60
2018-12-24T02:46:57.535Z,0.60
2018-12-24T02:49:24.867Z,0.40
2018-12-24T02:51:52.471Z,1.27
2018-12-24T02:54:19.814Z,0.88
2018-12-24T02:56:47.138Z,0.80
2018-12-24T02:59:15.919Z,2.58
2018-12-24T03:01:43.256Z,0.90
2018-12-24T03:04:10.651Z,2.42
2018-12-24T03:06:38.032Z,9.60
2018-12-24T03:09:05.970Z,2.15
2018-12-24T03:11:33.466Z,7.25
2018-12-24T03:14:00.877Z,1.67
2018-12-24T03:16:28.246Z,0.40
2018-12-24T03:18:55.512Z,0.30
2018-12-24T03:21:22.931Z,1.95
2018-12-24T03:23:50.350Z,0.40
2018-12-24T03:26:17.740Z,0.30
2018-12-24T03:28:45.094Z,1.47
2018-12-24T03:31:12.432Z,0.45
2018-12-24T03:33:39.809Z,0.50
2018-12-24T03:36:07.087Z,0.30
2018-12-24T03:38:34.481Z,0.30
2018-12-24T03:41:01.764Z,1.02
2018-12-24T03:43:29.162Z,1.32
2018-12-24T03:45:56.512Z,0.95
2018-12-24T03:48:23.931Z,1.45
2018-12-24T03:50:51.281Z,1.25
2018-12-24T03:53:18.696Z,0.40
2018-12-24T03:55:46.114Z,0.40
2018-12-24T03:58:13.712Z,0.80
2018-12-24T04:00:41.113Z,0.40
2018-12-24T04:03:08.500Z,0.62
2018-12-24T04:05:35.758Z,0.40
2018-12-24T04:08:03.254Z,0.72
2018-12-24T04:10:30.620Z,0.88
2018-12-24T04:12:57.900Z,0.40
2018-12-24T04:15:25.175Z,0.47
2018-12-24T04:17:52.586Z,0.40
2018-12-24T04:20:19.970Z,6.10
2018-12-24T04:22:47.556Z,8.45
2018-12-24T04:25:14.938Z,1.82
2018-12-24T04:27:42.335Z,1.72
2018-12-24T04:30:09.716Z,3.85
2018-12-24T04:32:36.998Z,2.08
2018-12-24T04:35:04.260Z,2.55
2018-12-24T04:37:31.638Z,3.87
2018-12-24T04:39:58.936Z,1.00
2018-12-24T04:42:26.224Z,1.55
2018-12-24T04:44:53.624Z,1.25
2018-12-24T04:47:20.989Z,0.80
2018-12-24T04:49:48.379Z,27.10
2018-12-24T04:52:15.761Z,18.77
2018-12-24T04:54:43.074Z,13.20
2018-12-24T04:57:10.478Z,2.22
2018-12-24T04:59:37.837Z,11.00
2018-12-24T05:02:05.107Z,0.88
2018-12-24T05:04:32.385Z,0.40
2018-12-24T05:06:59.679Z,1.85
2018-12-24T05:09:27.057Z,1.30
2018-12-24T05:11:54.339Z,12.33
2018-12-24T05:14:21.747Z,13.20
2018-12-24T05:16:49.104Z,55.75
2018-12-24T05:19:16.406Z,55.28
2018-12-24T05:21:43.691Z,17.77
2018-12-24T05:24:10.955Z,23.87
2018-12-24T05:26:38.247Z,2.77
2018-12-24T05:29:06.158Z,0.70
2018-12-24T05:31:33.519Z,0.65
2018-12-24T05:34:01.108Z,51.68
2018-12-24T05:36:28.416Z,15.45
2018-12-24T05:38:55.701Z,15.83
2018-12-24T05:41:23.011Z,6.15
2018-12-24T05:43:50.387Z,0.90
2018-12-24T05:46:17.693Z,0.30
2018-12-24T05:48:44.974Z,2.67
2018-12-24T05:51:12.404Z,4.15
2018-12-24T05:53:39.693Z,58.17
2018-12-24T05:56:07.016Z,52.48
2018-12-24T05:58:34.408Z,16.87
2018-12-24T06:01:01.831Z,1.52
2018-12-24T06:03:29.209Z,0.80
2018-12-24T06:05:56.517Z,14.28
2018-12-24T06:08:23.881Z,1.67
2018-12-24T06:10:51.168Z,4.90
2018-12-24T06:13:18.448Z,50.83
2018-12-24T06:15:45.750Z,18.67
2018-12-24T06:18:13.144Z,0.60
2018-12-24T06:20:40.503Z,0.30
2018-12-24T06:23:07.786Z,0.30
2018-12-24T06:25:35.172Z,0.30
2018-12-24T06:28:02.468Z,18.77
2018-12-24T06:30:29.806Z,7.40
2018-12-24T06:32:57.084Z,2.20
2018-12-24T06:35:24.361Z,0.70
2018-12-24T06:37:51.655Z,0.30
2018-12-24T06:40:19.047Z,37.33
2018-12-24T06:42:46.365Z,4.22
2018-12-24T06:45:13.667Z,1.10
2018-12-24T06:47:41.074Z,0.78
2018-12-24T06:50:08.465Z,1.02
2018-12-24T06:52:36.188Z,2.80
2018-12-24T06:55:03.621Z,29.02
2018-12-24T06:57:30.919Z,1.40
2018-12-24T06:59:58.598Z,0.60
2018-12-24T07:02:26.390Z,1.10
2018-12-24T07:04:53.834Z,1.60
2018-12-24T07:07:21.521Z,18.07
2018-12-24T07:09:48.793Z,49.00
2018-12-24T07:12:16.184Z,39.65
2018-12-24T07:14:43.504Z,55.25
2018-12-24T07:17:10.888Z,55.78
2018-12-24T07:19:38.176Z,55.90
2018-12-24T07:22:05.517Z,55.92
2018-12-24T07:24:32.918Z,52.88
2018-12-24T07:27:00.348Z,41.55
2018-12-24T07:29:27.807Z,41.25
2018-12-24T07:31:55.205Z,47.93
2018-12-24T07:34:22.767Z,56.30
2018-12-24T07:36:50.123Z,57.58
2018-12-24T07:39:17.551Z,47.53
2018-12-24T07:41:44.975Z,58.90
2018-12-24T07:44:12.417Z,39.50
2018-12-24T07:46:40.937Z,47.27
2018-12-24T07:49:08.531Z,41.90
2018-12-24T07:51:35.993Z,52.67
2018-12-24T07:54:03.588Z,42.90
2018-12-24T07:56:30.997Z,46.60
2018-12-24T07:58:58.411Z,47.60
2018-12-24T08:01:25.806Z,44.25
2018-12-24T08:03:53.222Z,51.60
2018-12-24T08:06:20.809Z,21.85
2018-12-24T08:08:48.233Z,24.67
2018-12-24T08:11:15.623Z,60.45
2018-12-24T08:13:43.042Z,12.88
2018-12-24T08:16:10.477Z,32.58
2018-12-24T08:18:37.929Z,43.45
2018-12-24T08:21:05.577Z,7.08
2018-12-24T08:23:32.972Z,1.50
2018-12-24T08:26:00.452Z,4.90
2018-12-24T08:28:27.878Z,51.42
2018-12-24T08:30:55.314Z,23.27
2018-12-24T08:33:22.752Z,5.97
2018-12-24T08:35:50.127Z,3.20
2018-12-24T08:38:17.434Z,33.78
2018-12-24T08:40:44.909Z,50.48
2018-12-24T08:43:12.347Z,16.32
2018-12-24T08:45:39.801Z,27.25
2018-12-24T08:48:07.236Z,38.70
2018-12-24T08:50:34.703Z,12.03
2018-12-24T08:53:02.071Z,6.08
2018-12-24T08:55:29.412Z,5.80
2018-12-24T08:57:56.707Z,37.40
2018-12-24T09:00:24.133Z,28.85
2018-12-24T09:02:51.559Z,14.75
2018-12-24T09:05:18.992Z,27.02
2018-12-24T09:07:46.432Z,12.90
2018-12-24T09:10:13.882Z,22.87
2018-12-24T09:12:41.340Z,21.85
2018-12-24T09:15:08.977Z,36.55
2018-12-24T09:17:36.702Z,52.30
2018-12-24T09:20:04.672Z,44.35
2018-12-24T09:22:31.963Z,40.38
2018-12-24T09:24:59.709Z,53.87
2018-12-24T09:27:27.352Z,50.48
2018-12-24T09:29:54.632Z,58.68
2018-12-24T09:32:21.950Z,52.80
2018-12-24T09:34:49.343Z,54.05
2018-12-24T09:37:16.808Z,19.90
2018-12-24T09:39:44.212Z,30.72
2018-12-24T09:42:11.676Z,18.15
2018-12-24T09:44:39.264Z,15.08
2018-12-24T09:47:06.714Z,54.40
2018-12-24T09:49:34.149Z,31.00
2018-12-24T09:52:01.885Z,18.98
2018-12-24T09:54:29.275Z,50.52
2018-12-24T09:56:56.725Z,13.95
2018-12-24T09:59:24.052Z,3.00
2018-12-24T10:01:51.493Z,3.35
2018-12-24T10:04:29.228Z,24.10
2018-12-24T10:07:01.541Z,12.25
2018-12-24T10:09:28.961Z,11.53
2018-12-24T10:11:56.374Z,55.55
2018-12-24T10:14:23.791Z,52.25
2018-12-24T10:16:51.234Z,58.68
2018-12-24T10:19:18.626Z,52.85
2018-12-24T10:21:46.054Z,54.85
2018-12-24T10:24:13.656Z,49.53
2018-12-24T10:26:41.108Z,57.65
2018-12-24T10:29:08.835Z,56.37
2018-12-24T10:31:36.285Z,54.13
2018-12-24T10:34:03.706Z,54.10
2018-12-24T10:36:31.208Z,54.33
2018-12-24T10:38:58.617Z,63.15
2018-12-24T10:41:26.946Z,41.80
2018-12-24T10:43:54.527Z,22.32
2018-12-24T10:46:22.794Z,9.95
2018-12-24T10:48:50.158Z,19.55
2018-12-24T10:51:17.578Z,46.20
2018-12-24T10:53:45.117Z,52.00
2018-12-24T10:56:12.533Z,44.55
2018-12-24T10:58:39.994Z,52.93
2018-12-24T11:01:07.332Z,43.80
2018-12-24T11:03:34.782Z,48.78
2018-12-24T11:06:02.190Z,57.62
2018-12-24T11:08:29.675Z,45.73
2018-12-24T11:10:57.101Z,56.08
2018-12-24T11:13:24.534Z,54.95
2018-12-24T11:15:52.255Z,50.43
2018-12-24T11:18:19.586Z,43.65
2018-12-24T11:20:46.893Z,50.92
2018-12-24T11:23:14.255Z,41.80
2018-12-24T11:25:41.679Z,53.78
2018-12-24T11:28:09.127Z,54.08
2018-12-24T11:30:38.851Z,53.80
2018-12-24T11:33:06.588Z,54.27
2018-12-24T11:35:33.928Z,56.88
2018-12-24T11:38:01.327Z,53.70
2018-12-24T11:40:28.658Z,55.48
2018-12-24T11:42:56.304Z,54.88
2018-12-24T11:45:23.760Z,39.48
2018-12-24T11:47:51.213Z,38.80
2018-12-24T11:50:18.613Z,41.50
2018-12-24T11:52:45.957Z,42.30
2018-12-24T11:55:13.393Z,41.33
2018-12-24T11:57:40.731Z,55.83
2018-12-24T12:00:08.208Z,51.55
2018-12-24T12:02:35.647Z,39.20
2018-12-24T12:05:03.084Z,41.42
2018-12-24T12:07:30.502Z,37.75
2018-12-24T12:09:57.853Z,42.62
2018-12-24T12:12:25.219Z,41.40
2018-12-24T12:14:52.572Z,39.35
2018-12-24T12:17:20.011Z,40.00
2018-12-24T12:19:47.389Z,38.83
2018-12-24T12:22:14.783Z,53.87
2018-12-24T12:24:42.279Z,69.70
2018-12-24T12:27:09.876Z,41.83
2018-12-24T12:29:37.288Z,47.90
2018-12-24T12:32:04.766Z,53.65
2018-12-24T12:34:32.221Z,41.40
2018-12-24T12:36:59.583Z,46.92
2018-12-24T12:39:26.916Z,37.67
2018-12-24T12:41:54.388Z,45.05
2018-12-24T12:44:21.855Z,43.05
2018-12-24T12:46:49.385Z,45.35
2018-12-24T12:49:16.799Z,45.80
2018-12-24T12:51:44.518Z,41.28
2018-12-24T12:54:12.257Z,58.13
2018-12-24T12:56:39.737Z,40.45
2018-12-24T12:59:07.065Z,59.55
2018-12-24T13:01:34.803Z,70.12
2018-12-24T13:04:02.185Z,59.35
2018-12-24T13:06:29.686Z,63.10
2018-12-24T13:08:57.414Z,69.92
2018-12-24T13:11:24.858Z,65.45
2018-12-24T13:13:52.190Z,70.55
2018-12-24T13:16:19.638Z,72.22
2018-12-24T13:18:47.023Z,59.80
2018-12-24T13:21:14.414Z,67.12
2018-12-24T13:23:41.844Z,63.65
2018-12-24T13:26:09.305Z,69.95
2018-12-24T13:28:36.782Z,68.00
2018-12-24T13:31:04.259Z,64.67
2018-12-24T13:33:31.799Z,80.85
2018-12-24T13:35:59.532Z,71.72
2018-12-24T13:38:28.350Z,70.83
2018-12-24T13:40:55.736Z,65.28
2018-12-24T13:43:23.256Z,66.80
2018-12-24T13:45:51.060Z,61.48
2018-12-24T13:48:18.579Z,63.75
2018-12-24T13:50:45.991Z,26.77
2018-12-24T13:53:13.380Z,75.42
2018-12-24T13:55:40.871Z,73.92
2018-12-24T13:58:08.362Z,67.17
2018-12-24T14:00:35.851Z,58.70
2018-12-24T14:03:03.290Z,63.13
2018-12-24T14:05:31.062Z,64.32
2018-12-24T14:07:58.537Z,63.23
2018-12-24T14:10:25.970Z,56.15
2018-12-24T14:12:53.842Z,55.17
2018-12-24T14:15:21.368Z,54.23
2018-12-24T14:17:48.818Z,43.60
2018-12-24T14:20:16.261Z,45.95
2018-12-24T14:22:43.668Z,38.73
2018-12-24T14:25:11.151Z,43.38
2018-12-24T14:27:38.566Z,42.30
2018-12-24T14:30:07.470Z,38.20
2018-12-24T14:32:34.907Z,45.30
2018-12-24T14:35:02.339Z,41.53
2018-12-24T14:37:29.726Z,46.05
2018-12-24T14:39:57.082Z,43.78
2018-12-24T14:42:24.438Z,59.08
2018-12-24T14:44:51.925Z,41.37
2018-12-24T14:47:19.375Z,48.02
2018-12-24T14:49:46.839Z,49.00
2018-12-24T14:52:14.295Z,42.67
2018-12-24T14:54:41.751Z,61.95
2018-12-24T14:57:09.192Z,48.85
2018-12-24T14:59:36.662Z,48.75
2018-12-24T15:02:04.093Z,56.95
2018-12-24T15:04:31.545Z,51.77
2018-12-24T15:06:58.953Z,63.92
2018-12-24T15:09:26.464Z,53.08
2018-12-24T15:11:54.269Z,53.92
2018-12-24T15:14:21.696Z,81.10
2018-12-24T15:16:49.233Z,45.08
2018-12-24T15:19:16.614Z,50.25
2018-12-24T15:21:43.994Z,57.45
2018-12-24T15:24:11.531Z,60.30
2018-12-24T15:26:39.062Z,48.40
2018-12-24T15:29:06.515Z,51.75
2018-12-24T15:31:33.974Z,64.25
2018-12-24T15:34:01.422Z,65.12
2018-12-24T15:36:28.753Z,50.95
2018-12-24T15:38:56.231Z,67.55
2018-12-24T15:41:23.664Z,73.28
2018-12-24T15:43:51.116Z,58.05
2018-12-24T15:46:18.577Z,60.90
2018-12-24T15:48:46.000Z,49.60
2018-12-24T15:51:13.518Z,49.95
2018-12-24T15:53:43.869Z,45.58
2018-12-24T15:56:11.318Z,44.23
2018-12-24T15:58:38.785Z,47.43
2018-12-24T16:01:06.123Z,42.88
2018-12-24T16:03:36.877Z,42.00
2018-12-24T16:06:03.132Z,50.10
2018-12-24T16:08:30.903Z,46.28
2018-12-24T16:10:58.353Z,50.65
2018-12-24T16:13:25.815Z,45.92
2018-12-24T16:15:53.256Z,55.45
2018-12-24T16:18:20.686Z,53.13
2018-12-24T16:20:48.096Z,52.48
2018-12-24T16:23:15.521Z,44.55
2018-12-24T16:25:42.943Z,46.77
2018-12-24T16:28:10.385Z,44.35
2018-12-24T16:30:37.709Z,52.50
2018-12-24T16:33:05.130Z,42.83
2018-12-24T16:35:32.560Z,43.70
2018-12-24T16:38:00.281Z,44.53
2018-12-24T16:40:27.740Z,53.42
2018-12-24T16:42:55.110Z,52.30
2018-12-24T16:45:22.462Z,58.52
2018-12-24T16:47:49.893Z,61.85
2018-12-24T16:50:17.230Z,65.37
2018-12-24T16:52:44.596Z,62.15
2018-12-24T16:55:12.005Z,68.95
2018-12-24T16:57:41.214Z,62.60
2018-12-24T17:00:08.706Z,61.63
2018-12-24T17:02:36.128Z,64.12
2018-12-24T17:05:03.735Z,49.58
2018-12-24T17:07:31.117Z,56.92
2018-12-24T17:09:58.533Z,31.80
2018-12-24T17:12:25.905Z,19.15
2018-12-24T17:14:53.335Z,19.48
2018-12-24T17:17:21.214Z,16.20
2018-12-24T17:19:48.622Z,20.52
2018-12-24T17:22:16.310Z,25.27
2018-12-24T17:24:43.618Z,14.87
2018-12-24T17:27:11.350Z,9.73
2018-12-24T17:29:38.750Z,9.15
2018-12-24T17:32:06.085Z,8.30
2018-12-24T17:34:33.511Z,7.03
2018-12-24T17:37:00.925Z,8.83
2018-12-24T17:39:28.287Z,6.35
2018-12-24T17:41:56.610Z,8.30
2018-12-24T17:44:24.010Z,6.35
2018-12-24T17:46:51.388Z,7.00
2018-12-24T17:49:18.808Z,6.22
2018-12-24T17:51:46.223Z,7.37
2018-12-24T17:54:13.574Z,7.28
2018-12-24T17:56:41.002Z,8.05
2018-12-24T17:59:08.327Z,7.60
2018-12-24T18:01:35.731Z,10.65
2018-12-24T18:04:03.139Z,9.33
2018-12-24T18:06:30.543Z,12.90
2018-12-24T18:08:57.861Z,11.28
2018-12-24T18:11:25.323Z,14.58
2018-12-24T18:13:53.027Z,12.93
2018-12-24T18:16:20.419Z,17.65
2018-12-24T18:18:47.835Z,16.07
2018-12-24T18:21:15.278Z,14.43
2018-12-24T18:23:42.731Z,18.00
2018-12-24T18:26:10.140Z,12.55
2018-12-24T18:28:37.899Z,12.28
2018-12-24T18:31:05.210Z,11.38
2018-12-24T18:33:32.888Z,8.65
2018-12-24T18:36:00.276Z,8.43
2018-12-24T18:38:27.678Z,7.75
2018-12-24T18:40:55.053Z,7.92
2018-12-24T18:43:22.490Z,7.20
2018-12-24T18:45:49.908Z,7.80
2018-12-24T18:48:17.369Z,52.53
2018-12-24T18:50:44.800Z,52.95
2018-12-24T18:53:12.288Z,58.63
2018-12-24T18:55:39.641Z,64.45
2018-12-24T18:58:07.060Z,50.92
2018-12-24T19:00:34.496Z,59.18
2018-12-24T19:03:01.941Z,60.70
2018-12-24T19:05:29.359Z,50.30
2018-12-24T19:07:57.088Z,42.13
2018-12-24T19:10:24.807Z,37.78
2018-12-24T19:12:52.251Z,23.10
2018-12-24T19:15:19.666Z,16.67
2018-12-24T19:17:47.264Z,34.98
2018-12-24T19:20:14.685Z,65.55
2018-12-24T19:22:42.257Z,48.98
2018-12-24T19:25:09.667Z,64.15
2018-12-24T19:27:37.099Z,64.17
2018-12-24T19:30:05.618Z,48.30
2018-12-24T19:32:33.164Z,55.92
2018-12-24T19:35:00.488Z,60.03
2018-12-24T19:37:27.973Z,56.08
2018-12-24T19:39:55.688Z,62.50
2018-12-24T19:42:23.179Z,62.58
2018-12-24T19:44:50.569Z,62.38
2018-12-24T19:47:17.918Z,59.70
2018-12-24T19:49:45.301Z,48.33
2018-12-24T19:52:12.737Z,60.95
2018-12-24T19:54:40.201Z,57.33
2018-12-24T19:57:07.725Z,70.78
2018-12-24T19:59:36.402Z,62.65
2018-12-24T20:02:03.891Z,63.52
2018-12-24T20:04:31.323Z,64.58
2018-12-24T20:06:58.808Z,62.85
2018-12-24T20:09:26.242Z,60.40
2018-12-24T20:11:53.696Z,65.00
2018-12-24T20:14:21.414Z,60.92
2018-12-24T20:16:48.914Z,66.20
2018-12-24T20:19:16.616Z,67.05
2018-12-24T20:21:44.038Z,63.83
2018-12-24T20:24:11.568Z,33.50
2018-12-24T20:26:39.436Z,27.95
2018-12-24T20:29:07.154Z,28.98
2018-12-24T20:31:34.501Z,24.05
2018-12-24T20:34:02.253Z,21.73
2018-12-24T20:36:29.593Z,23.77
2018-12-24T20:38:57.074Z,22.10
2018-12-24T20:41:24.601Z,20.85
2018-12-24T20:43:52.416Z,18.90
2018-12-24T20:46:19.768Z,23.55
2018-12-24T20:48:47.205Z,22.15
2018-12-24T20:51:16.217Z,21.35
2018-12-24T20:53:43.976Z,22.35
2018-12-24T20:56:11.428Z,24.12
2018-12-24T20:58:38.909Z,26.45
2018-12-24T21:01:06.432Z,20.95
2018-12-24T21:03:33.856Z,27.35
2018-12-24T21:06:01.339Z,25.77
2018-12-24T21:08:29.131Z,22.93
2018-12-24T21:10:56.568Z,23.40
2018-12-24T21:13:24.059Z,21.00
2018-12-24T21:15:51.590Z,25.30
2018-12-24T21:18:19.366Z,28.57
2018-12-24T21:20:46.843Z,22.73
2018-12-24T21:23:14.289Z,24.07
2018-12-24T21:25:41.743Z,19.92
2018-12-24T21:28:09.493Z,19.75
2018-12-24T21:30:36.930Z,16.65
2018-12-24T21:33:04.363Z,20.25
2018-12-24T21:35:31.845Z,16.10
2018-12-24T21:37:59.299Z,18.85
2018-12-24T21:40:26.689Z,22.10
2018-12-24T21:42:54.659Z,22.27
2018-12-24T21:45:22.399Z,24.47
2018-12-24T21:47:52.636Z,21.42
2018-12-24T21:50:20.354Z,19.45
2018-12-24T21:52:47.911Z,22.90
2018-12-24T21:55:15.693Z,23.92
2018-12-24T21:57:43.462Z,23.18
2018-12-24T22:00:10.938Z,20.88
2018-12-24T22:02:38.395Z,21.33
2018-12-24T22:05:05.837Z,22.42
2018-12-24T22:07:33.282Z,21.12
2018-12-24T22:10:00.717Z,31.30
2018-12-24T22:12:28.071Z,26.48
2018-12-24T22:14:55.533Z,20.85
2018-12-24T22:17:22.978Z,20.80
2018-12-24T22:19:50.339Z,37.53
2018-12-24T22:22:17.839Z,33.55
2018-12-24T22:24:45.390Z,41.63
2018-12-24T22:27:14.726Z,22.95
2018-12-24T22:29:42.485Z,16.75
2018-12-24T22:32:09.935Z,19.57
2018-12-24T22:34:37.327Z,20.25
2018-12-24T22:37:05.087Z,18.40
2018-12-24T22:39:32.458Z,21.85
2018-12-24T22:41:59.920Z,17.17
2018-12-24T22:44:27.305Z,15.20
2018-12-24T22:46:54.986Z,18.35
2018-12-24T22:49:22.388Z,17.75
2018-12-24T22:51:50.023Z,22.10
2018-12-24T22:54:17.635Z,18.25
2018-12-24T22:56:45.522Z,18.00
2018-12-24T22:59:13.045Z,16.07
2018-12-24T23:01:40.861Z,48.78
2018-12-24T23:04:08.417Z,19.73
2018-12-24T23:06:35.829Z,24.12
2018-12-24T23:09:05.647Z,27.42
2018-12-24T23:11:33.267Z,27.48
2018-12-24T23:14:01.058Z,22.73
2018-12-24T23:16:28.425Z,35.68
2018-12-24T23:18:55.751Z,15.95
2018-12-24T23:21:23.389Z,19.10
2018-12-24T23:23:50.706Z,22.00
2018-12-24T23:26:18.098Z,17.37
2018-12-24T23:28:45.383Z,47.13
2018-12-24T23:31:12.796Z,47.65
2018-12-24T23:33:40.288Z,22.73
2018-12-24T23:36:07.707Z,17.27
2018-12-24T23:38:35.135Z,17.52
2018-12-24T23:41:02.879Z,24.12
2018-12-24T23:43:30.290Z,19.50
2018-12-24T23:45:57.622Z,17.37
2018-12-24T23:48:25.096Z,33.05
2018-12-24T23:50:52.538Z,22.55
2018-12-24T23:53:20.224Z,18.75
2018-12-24T23:55:47.854Z,17.55
2018-12-24T23:58:15.263Z,16.82
